• Join FlightAware (Why Join?)
  • Login
  • US Flag 
09:55PM EDT


 

Airport Tracker/Info


-or-


 

Live Flight TrackerFlight Track Log ✈ N572EC ✈ 05-Jul-2013 ✈ KPBI - KFHB

Flight Track Log - Related Links

Times and Time Zones

All times are in EDT time to prevent confusion due to time zone crossing. See the N572EC flight status page for this flight to view local times or setup timezone preferences in your user account.

Time Position Orientation Groundspeed Altitude Reporting Facility
EDT Latitude Longitude Course Direction KTS MPH feet Rate Location/Type
08:22AM 26.7256 -79.9989 270° West 261 300 6,900  Level Miami Center
08:23AM 26.8086 -80.0150 350° North 284 327 9,800 2,520 Climbing Miami Center
08:24AM 26.8358 -80.1114 288° West 288 331 12,000 1,980 Climbing Miami Center
08:25AM 26.8481 -80.2142 278° West 338 389 13,800 960 Climbing Miami Center
08:26AM 26.8500 -80.3138 270° West  Level FlightAware Approximate
08:26AM 26.8850 -80.3244 291° West 375 432 14,000  Level Miami Center
08:27AM 26.9750 -80.4133 319° Northwest 391 450 17,200 2,700 Climbing Miami Center
08:28AM 27.0756 -80.4772 331° Northwest 403 464 19,500 2,640 Climbing Miami Center
08:29AM 27.1806 -80.5389 332° Northwest 408 470 22,500 2,460 Climbing Miami Center
08:30AM 27.2856 -80.6006 332° Northwest 418 481 24,500 1,920 Climbing Miami Center
08:31AM 27.3944 -80.6650 332° Northwest 429 494 26,400 1,200 Climbing Miami Center
08:32AM 27.5075 -80.7294 333° Northwest 441 507 27,000 300 Climbing Miami Center
08:33AM 27.6206 -80.7919 334° Northwest 449 517 27,000  Level Miami Center
08:34AM 27.7336 -80.8614 331° Northwest 454 522 27,000  Level Miami Center
08:35AM 27.8336 -80.9447 324° Northwest 454 522 27,000  Level Miami Center
08:36AM 27.9289 -81.0375 319° Northwest 454 522 27,000  Level Miami Center
08:37AM 28.0139 -81.1325 315° West 459 528 27,000  Level Miami Center
08:38AM 28.1281 -81.2214 326° Northwest 464 534 27,000  Level Miami Center
08:39AM 28.2497 -81.2614 344° North 448 516 27,000  Level Miami Center
08:41AM 28.4889 -81.3219 347° North 456 525 27,000 -420 Level Jacksonville Center
08:42AM 28.6122 -81.3458 350° North 451 519 25,800 -1,560 Descending Jacksonville Center
08:43AM 28.7375 -81.3583 355° North 451 519 23,900 -1,920 Descending Jacksonville Center
08:44AM 28.8550 -81.3944 345° North 439 505 22,000 -1,020 Descending Jacksonville Center
08:45AM 28.9639 -81.4450 338° Northwest 424 488 21,900 -780 Descending Jacksonville Center
08:46AM 29.0831 -81.4550 356° North 424 488 20,500 -1,500 Descending Jacksonville Center
08:47AM 29.2003 -81.4725 353° North 424 488 19,000 -1,500 Descending Jacksonville Center
08:48AM 29.3256 -81.4897 353° North 419 482 17,600 -1,320 Descending Jacksonville Center
08:49AM 29.4428 -81.5022 355° North 419 482 16,400 -1,200 Descending Jacksonville Center
08:50AM 29.5556 -81.5150 354° North 414 476 15,200 -1,260 Descending Jacksonville Center
08:51AM 29.6642 -81.5253 355° North 404 465 13,900 -1,140 Descending Jacksonville Center
08:52AM 29.7728 -81.5358 355° North 398 458 13,000 -600 Descending Jacksonville Center
08:53AM 29.8814 -81.5464 355° North 393 452 12,800 -840 Descending Jacksonville Center
08:54AM 29.9881 -81.5519 357° North 387 445 11,400 -1,620 Descending Jacksonville Center
08:55AM 30.0842 -81.5531 359° North 368 423 9,600 -1,800 Descending Jacksonville Center
08:56AM 30.1739 -81.5542 359° North 339 390 7,900 -1,800 Descending Jacksonville Center
08:57AM 30.2511 -81.5556 359° North 316 364 6,000 -1,860 Descending Jacksonville Center
08:58AM 30.3347 -81.5544 North 300 345 4,200 -1,560 Descending Jacksonville Center
08:59AM 30.4097 -81.5364 12° North 287 330 2,900 -900 Descending Jacksonville Center
09:00AM 30.4928 -81.5064 17° North 240 276 2,300 -540 Descending Jacksonville Center